Time;durP1;ratioP1;P1;durP2;ratioP2;P2;SDS_P1;SDS_P2;PMS_P1;PMS_P2;Temp;Humidity;BMP_temperature;BMP_pressure;BME280_temperature;BME280_humidity;BME280_pressure;Samples;Min_cycle;Max_cycle;Signal;HPM_P1;HPM_P2
2022/01/05 00:01:20;;;;;;;7.80;1.23;;;1.50;99.90;;;;;;5017102;28;20081;-83
2022/01/05 00:03:46;;;;;;;9.33;1.47;;;1.50;99.90;;;;;;5033452;28;20399;-80
2022/01/05 00:06:11;;;;;;;4.60;0.80;;;1.50;99.90;;;;;;5033470;28;20128;-81
2022/01/05 00:08:37;;;;;;;2.20;0.40;;;1.50;99.90;;;;;;5000980;28;20055;-83
2022/01/05 00:11:03;;;;;;;7.00;0.73;;;1.40;99.90;;;;;;5017171;28;21001;-82
2022/01/05 00:13:29;;;;;;;6.83;0.80;;;1.40;99.90;;;;;;5016271;28;20069;-80
2022/01/05 00:15:54;;;;;;;3.77;0.60;;;1.30;99.90;;;;;;5016664;28;20138;-82
2022/01/05 00:18:20;;;;;;;2.77;0.67;;;1.30;99.90;;;;;;5016745;28;20404;-82
2022/01/05 00:20:46;;;;;;;14.20;1.53;;;1.30;99.90;;;;;;5016541;28;20045;-83
2022/01/05 00:23:12;;;;;;;7.03;0.80;;;1.30;99.90;;;;;;5016802;28;20099;-80
2022/01/05 00:25:38;;;;;;;9.57;1.73;;;1.30;99.90;;;;;;5033363;28;20042;-83
2022/01/05 00:28:04;;;;;;;2.73;0.73;;;1.40;99.90;;;;;;5000301;28;20106;-83
2022/01/05 00:30:31;;;;;;;7.00;1.03;;;1.40;99.90;;;;;;5033208;28;20399;-81
2022/01/05 00:32:57;;;;;;;9.73;1.53;;;1.50;99.90;;;;;;5016412;28;20052;-82
2022/01/05 00:35:23;;;;;;;7.30;0.80;;;1.50;99.90;;;;;;5016334;28;20042;-83
2022/01/05 00:37:48;;;;;;;10.90;1.00;;;1.60;99.90;;;;;;5032988;28;20434;-80
2022/01/05 00:40:14;;;;;;;4.20;0.70;;;1.70;99.90;;;;;;5016357;28;20094;-81
2022/01/05 00:42:40;;;;;;;10.27;0.73;;;1.80;99.90;;;;;;5032702;28;20045;-83
2022/01/05 00:45:06;;;;;;;4.00;0.90;;;1.90;99.90;;;;;;5016554;28;20491;-83
2022/01/05 00:47:32;;;;;;;7.20;1.40;;;1.90;99.90;;;;;;5032608;28;20055;-83
2022/01/05 00:49:57;;;;;;;5.60;1.00;;;2.00;99.90;;;;;;5032584;28;20475;-80
2022/01/05 00:52:23;;;;;;;7.03;1.67;;;1.90;99.90;;;;;;5016203;28;20056;-80
2022/01/05 00:54:49;;;;;;;6.20;1.43;;;1.90;99.90;;;;;;5016145;28;20485;-83
2022/01/05 00:57:15;;;;;;;6.83;0.83;;;1.90;99.90;;;;;;5032710;28;20448;-81
2022/01/05 00:59:41;;;;;;;6.30;1.10;;;2.00;99.40;;;;;;5032589;28;20081;-81
2022/01/05 01:02:07;;;;;;;5.90;1.30;;;2.10;85.10;;;;;;5016241;28;20500;-83
2022/01/05 01:04:33;;;;;;;5.87;0.63;;;2.20;70.10;;;;;;5015750;28;20096;-81
2022/01/05 01:06:58;;;;;;;5.47;1.10;;;2.20;73.10;;;;;;5016131;28;20045;-83
2022/01/05 01:09:24;;;;;;;11.77;0.90;;;2.20;68.90;;;;;;5015763;28;20049;-81
2022/01/05 01:11:50;;;;;;;12.30;1.97;;;2.30;68.30;;;;;;5015823;28;20045;-81
2022/01/05 01:14:15;;;;;;;8.80;1.60;;;2.30;77.10;;;;;;4999748;28;20045;-83
2022/01/05 01:16:41;;;;;;;5.87;0.60;;;2.30;83.60;;;;;;5032013;28;20041;-80
2022/01/05 01:19:07;;;;;;;8.30;0.90;;;2.40;79.60;;;;;;5032337;28;20037;-83
2022/01/05 01:21:33;;;;;;;12.30;1.40;;;2.40;77.70;;;;;;5032072;28;20106;-83
2022/01/05 01:23:59;;;;;;;6.40;0.52;;;2.50;65.20;;;;;;5032166;28;20092;-83
2022/01/05 01:26:27;;;;;;;6.47;1.45;;;2.50;63.50;;;;;;5031987;28;20076;-81
2022/01/05 01:28:53;;;;;;;10.07;1.30;;;2.50;55.00;;;;;;5031807;28;20171;-82
2022/01/05 01:31:19;;;;;;;7.27;1.30;;;2.50;55.00;;;;;;5031844;28;20046;-80
2022/01/05 01:33:46;;;;;;;5.00;1.27;;;2.60;52.50;;;;;;5015704;28;20052;-83
2022/01/05 01:36:11;;;;;;;8.38;1.63;;;2.60;44.80;;;;;;5015473;28;20132;-82
2022/01/05 01:38:37;;;;;;;12.20;1.73;;;2.60;40.20;;;;;;5032089;28;20565;-81
2022/01/05 01:41:04;;;;;;;8.73;0.93;;;2.60;42.40;;;;;;5031784;28;20048;-83
2022/01/05 01:43:30;;;;;;;3.58;1.33;;;2.70;28.50;;;;;;5031538;28;20048;-83
2022/01/05 01:45:55;;;;;;;4.35;1.48;;;2.80;15.30;;;;;;4998848;28;20045;-81
2022/01/05 01:48:21;;;;;;;9.32;1.38;;;2.80;2.50;;;;;;5015175;28;20042;-83
2022/01/05 01:50:47;;;;;;;6.43;1.02;;;2.80;4.70;;;;;;5031624;28;20057;-83
2022/01/05 01:53:13;;;;;;;8.15;1.73;;;2.80;8.50;;;;;;5031804;28;20391;-81
2022/01/05 01:55:39;;;;;;;6.68;1.10;;;2.70;7.60;;;;;;5031574;28;20049;-83
2022/01/05 01:58:06;;;;;;;4.05;1.17;;;2.70;3.40;;;;;;5015293;28;20072;-81
2022/01/05 02:00:32;;;;;;;9.18;1.38;;;2.70;6.80;;;;;;5015260;28;20037;-81
2022/01/05 02:02:58;;;;;;;6.20;1.48;;;2.70;12.50;;;;;;5014937;28;20045;-83
2022/01/05 02:05:25;;;;;;;8.20;1.40;;;2.70;13.80;;;;;;5031940;28;20488;-83
2022/01/05 02:07:51;;;;;;;4.27;0.97;;;2.60;21.20;;;;;;5031337;28;20045;-81
2022/01/05 02:10:17;;;;;;;7.47;0.50;;;2.60;23.90;;;;;;5031468;28;20112;-81
2022/01/05 02:12:43;;;;;;;7.35;1.90;;;2.50;28.40;;;;;;5031670;28;20048;-83
2022/01/05 02:15:10;;;;;;;4.40;1.17;;;2.50;37.40;;;;;;5031292;28;20095;-83
2022/01/05 02:17:50;;;;;;;1.67;0.35;;;2.50;42.00;;;;;;4998995;28;20049;-83
2022/01/05 02:20:22;;;;;;;9.00;1.25;;;2.50;46.60;;;;;;5031351;28;20052;-83
2022/01/05 02:22:48;;;;;;;7.57;1.27;;;2.60;42.30;;;;;;5031404;28;20037;-83
2022/01/05 02:25:14;;;;;;;7.30;1.23;;;2.60;45.90;;;;;;5031500;28;20488;-84
2022/01/05 02:27:42;;;;;;;7.27;1.83;;;2.60;54.20;;;;;;5031202;28;20139;-83
2022/01/05 02:30:10;;;;;;;4.72;0.73;;;2.60;71.60;;;;;;5031352;28;20099;-81
2022/01/05 02:32:36;;;;;;;9.30;2.22;;;2.60;69.00;;;;;;5031491;28;20050;-81
2022/01/05 02:35:02;;;;;;;6.78;1.05;;;2.70;60.00;;;;;;5015289;28;20500;-83
2022/01/05 02:37:28;;;;;;;4.83;1.00;;;2.70;61.20;;;;;;5016370;28;20049;-81
2022/01/05 02:39:53;;;;;;;9.77;1.50;;;2.70;60.10;;;;;;5018317;28;20049;-81
2022/01/05 02:42:27;;;;;;;4.03;0.82;;;2.80;59.00;;;;;;5035017;28;20063;-82
2022/01/05 02:44:53;;;;;;;;;;;2.80;56.70;;;;;;5035525;28;20148;-81
2022/01/05 02:47:19;;;;;;;9.23;1.63;;;2.70;64.70;;;;;;5034878;28;19960;-81
2022/01/05 02:49:45;;;;;;;8.35;1.90;;;2.70;75.00;;;;;;5034913;28;20092;-83
2022/01/05 02:52:10;;;;;;;9.52;1.33;;;2.70;82.30;;;;;;5018419;28;20571;-81
2022/01/05 02:54:36;;;;;;;6.17;1.73;;;2.80;80.70;;;;;;5034833;28;20041;-83
2022/01/05 02:57:02;;;;;;;13.82;1.90;;;2.90;81.80;;;;;;5018181;28;20116;-83
2022/01/05 02:59:28;;;;;;;10.30;1.77;;;3.00;80.20;;;;;;5018088;28;20088;-83
2022/01/05 03:01:54;;;;;;;9.55;1.73;;;3.10;82.10;;;;;;5034551;28;20128;-81
2022/01/05 03:04:20;;;;;;;9.52;1.38;;;3.20;78.80;;;;;;5017942;28;20559;-83
2022/01/05 03:06:46;;;;;;;5.65;0.85;;;3.20;91.20;;;;;;5034530;28;20562;-82
2022/01/05 03:09:11;;;;;;;7.40;1.25;;;3.10;99.90;;;;;;5034387;28;20524;-81
2022/01/05 03:11:37;;;;;;;9.40;1.03;;;3.00;99.90;;;;;;5018030;28;20407;-83
2022/01/05 03:14:03;;;;;;;8.30;1.60;;;2.90;99.90;;;;;;5034769;28;20439;-81
2022/01/05 03:16:28;;;;;;;6.18;1.63;;;2.80;99.90;;;;;;5017885;28;20037;-82
2022/01/05 03:18:54;;;;;;;10.63;1.20;;;2.70;99.90;;;;;;5034246;28;20045;-81
2022/01/05 03:21:20;;;;;;;12.20;2.05;;;2.60;99.90;;;;;;5018101;28;20042;-82
2022/01/05 03:23:46;;;;;;;6.45;1.08;;;2.60;99.90;;;;;;5001375;28;20188;-81
2022/01/05 03:26:13;;;;;;;8.75;0.88;;;2.60;99.90;;;;;;5017895;28;20053;-81
2022/01/05 03:28:39;;;;;;;5.13;1.27;;;2.60;99.90;;;;;;5017607;28;20587;-81
2022/01/05 03:31:05;;;;;;;9.10;1.05;;;2.80;99.90;;;;;;5001365;28;20046;-83
2022/01/05 03:33:30;;;;;;;5.13;1.05;;;2.90;99.90;;;;;;5034019;28;20053;-83
2022/01/05 03:35:56;;;;;;;2.92;0.85;;;2.80;99.90;;;;;;5017520;28;20048;-83
2022/01/05 03:38:23;;;;;;;5.95;1.00;;;2.80;99.90;;;;;;5017531;28;20096;-81
2022/01/05 03:40:50;;;;;;;3.38;1.33;;;2.80;99.90;;;;;;5033801;28;20046;-82
2022/01/05 03:43:16;;;;;;;9.07;1.85;;;2.70;99.90;;;;;;5033811;28;20041;-80
2022/01/05 03:45:43;;;;;;;6.85;0.82;;;2.90;99.90;;;;;;5017672;28;20574;-83
2022/01/05 03:48:11;;;;;;;6.18;1.23;;;2.90;99.90;;;;;;5016944;28;20558;-83
2022/01/05 03:50:38;;;;;;;8.65;1.17;;;2.80;99.90;;;;;;5033108;28;20042;-84
2022/01/05 03:53:04;;;;;;;4.68;1.08;;;2.80;99.90;;;;;;5017442;28;20527;-83
2022/01/05 03:55:31;;;;;;;5.47;1.33;;;2.80;99.90;;;;;;5033550;28;20049;-83
2022/01/05 03:57:57;;;;;;;7.05;1.50;;;2.80;99.90;;;;;;5033393;28;20049;-83
2022/01/05 04:00:24;;;;;;;9.25;1.67;;;2.90;99.90;;;;;;5033474;28;20045;-82
2022/01/05 04:02:50;;;;;;;10.10;1.55;;;3.00;99.90;;;;;;5017287;28;20092;-83
2022/01/05 04:05:16;;;;;;;8.63;1.17;;;3.10;99.90;;;;;;5033796;28;20497;-80
2022/01/05 04:07:42;;;;;;;7.60;2.03;;;2.90;99.90;;;;;;5033688;28;20053;-80
2022/01/05 04:10:07;;;;;;;5.97;1.45;;;2.80;99.90;;;;;;5000897;28;20045;-82
2022/01/05 04:12:33;;;;;;;8.60;1.00;;;2.90;99.90;;;;;;5000747;28;20090;-82
2022/01/05 04:14:59;;;;;;;3.70;0.50;;;2.70;99.90;;;;;;5016676;28;20041;-82
2022/01/05 04:17:24;;;;;;;7.18;0.45;;;2.60;99.90;;;;;;5016929;28;20045;-81
2022/01/05 04:19:50;;;;;;;6.20;1.05;;;2.60;99.90;;;;;;5033169;28;20041;-79
2022/01/05 04:22:16;;;;;;;6.85;1.00;;;2.50;99.90;;;;;;5016864;28;20053;-82
2022/01/05 04:24:42;;;;;;;7.93;1.02;;;2.50;99.90;;;;;;5016714;28;20053;-79
2022/01/05 04:27:08;;;;;;;5.63;0.80;;;2.40;99.90;;;;;;5033309;28;20076;-79
2022/01/05 04:29:33;;;;;;;3.20;0.60;;;2.40;99.90;;;;;;5016265;28;20136;-81
2022/01/05 04:32:00;;;;;;;8.30;0.73;;;2.40;99.90;;;;;;5016500;28;20423;-81
2022/01/05 04:34:26;;;;;;;3.67;0.93;;;2.60;99.90;;;;;;5016759;28;20038;-80
2022/01/05 04:36:52;;;;;;;6.90;1.15;;;2.50;99.90;;;;;;5033151;28;20038;-79
2022/01/05 04:39:18;;;;;;;2.58;0.75;;;2.60;99.90;;;;;;5016319;28;20048;-79
2022/01/05 04:41:44;;;;;;;7.90;1.00;;;2.60;99.90;;;;;;5032749;28;20561;-79
2022/01/05 04:44:09;;;;;;;13.55;2.15;;;2.50;99.90;;;;;;5032751;28;20076;-82
2022/01/05 04:46:35;;;;;;;9.68;1.17;;;2.50;99.90;;;;;;5032969;28;20111;-81
2022/01/05 04:49:01;;;;;;;2.67;0.63;;;2.70;99.90;;;;;;5032516;28;20045;-83
2022/01/05 04:51:26;;;;;;;5.63;1.20;;;2.70;99.90;;;;;;5016102;28;20428;-80
2022/01/05 04:53:52;;;;;;;6.88;1.05;;;2.80;99.90;;;;;;5015995;28;20041;-83
2022/01/05 04:56:18;;;;;;;5.88;0.63;;;2.80;99.90;;;;;;5016063;28;20058;-80
2022/01/05 04:58:44;;;;;;;9.40;1.13;;;2.90;99.90;;;;;;4999883;28;20052;-82
2022/01/05 05:01:10;;;;;;;9.23;2.33;;;2.90;99.90;;;;;;5015785;28;20042;-80
2022/01/05 05:03:35;;;;;;;9.57;1.00;;;3.00;99.90;;;;;;5015748;28;20068;-79
2022/01/05 05:06:01;;;;;;;8.50;1.40;;;3.10;99.90;;;;;;5016263;28;20056;-81
2022/01/05 05:08:27;;;;;;;12.02;1.65;;;3.20;99.90;;;;;;5015877;28;20049;-82
2022/01/05 05:10:52;;;;;;;5.50;2.35;;;3.30;99.90;;;;;;5032210;28;20045;-80
2022/01/05 05:13:18;;;;;;;9.45;1.95;;;3.20;99.90;;;;;;5015758;28;20042;-81
2022/01/05 05:15:44;;;;;;;10.35;1.63;;;3.20;99.90;;;;;;4999308;28;20046;-79
2022/01/05 05:18:09;;;;;;;6.43;1.38;;;3.10;99.90;;;;;;5015645;28;20476;-81
2022/01/05 05:20:35;;;;;;;8.27;1.80;;;3.20;99.90;;;;;;5016102;28;20068;-79
2022/01/05 05:23:02;;;;;;;9.45;2.33;;;3.30;99.90;;;;;;5032046;28;20049;-80
2022/01/05 05:25:28;;;;;;;7.10;1.88;;;3.40;99.90;;;;;;5031995;28;20045;-80
2022/01/05 05:27:53;;;;;;;13.05;2.28;;;3.30;99.90;;;;;;5031878;28;20045;-79
2022/01/05 05:30:19;;;;;;;8.60;1.85;;;3.30;99.90;;;;;;5032116;28;20041;-82
2022/01/05 05:32:45;;;;;;;8.95;1.58;;;3.30;99.90;;;;;;5015428;28;20057;-82
2022/01/05 05:35:11;;;;;;;13.55;1.85;;;3.30;99.90;;;;;;5015418;28;20492;-82
2022/01/05 05:37:37;;;;;;;13.20;1.05;;;3.30;99.90;;;;;;5031764;28;20079;-80
2022/01/05 05:40:04;;;;;;;7.00;1.40;;;3.10;99.90;;;;;;5031837;28;20053;-79
2022/01/05 05:42:29;;;;;;;3.83;0.95;;;2.90;99.90;;;;;;5015290;28;20049;-83
2022/01/05 05:44:55;;;;;;;7.35;1.33;;;2.60;99.90;;;;;;5015281;28;20049;-78
2022/01/05 05:47:21;;;;;;;6.28;1.10;;;2.70;99.90;;;;;;5031667;28;20050;-80
2022/01/05 05:49:46;;;;;;;5.07;1.33;;;2.80;99.90;;;;;;5015735;28;20515;-78
2022/01/05 05:52:12;;;;;;;6.35;1.05;;;2.90;99.90;;;;;;5031880;28;20053;-80
2022/01/05 05:54:38;;;;;;;4.35;1.00;;;2.90;99.90;;;;;;5031676;28;20041;-79
2022/01/05 05:57:04;;;;;;;5.47;1.35;;;3.00;99.90;;;;;;5031573;28;20504;-81
2022/01/05 05:59:30;;;;;;;3.45;0.90;;;3.10;99.90;;;;;;5031892;28;20439;-79
2022/01/05 06:01:56;;;;;;;9.05;0.98;;;3.10;99.90;;;;;;5031517;28;20088;-78
2022/01/05 06:04:22;;;;;;;11.00;1.73;;;3.20;99.90;;;;;;5015003;28;20057;-78
2022/01/05 06:06:48;;;;;;;8.65;1.58;;;3.20;99.90;;;;;;4998902;28;20053;-80
2022/01/05 06:09:13;;;;;;;5.18;0.63;;;3.30;99.90;;;;;;5031553;28;20407;-83
2022/01/05 06:11:39;;;;;;;5.20;0.77;;;3.30;99.90;;;;;;4999041;28;20045;-83
2022/01/05 06:14:05;;;;;;;7.43;1.70;;;3.40;99.90;;;;;;5035819;28;20042;-82
2022/01/05 06:16:31;;;;;;;9.90;1.35;;;3.40;99.90;;;;;;5019163;28;20132;-82
2022/01/05 06:18:56;;;;;;;5.35;1.25;;;3.40;99.90;;;;;;5035630;28;20053;-83
2022/01/05 06:21:22;;;;;;;18.67;2.05;;;3.60;99.90;;;;;;5035753;28;20049;-78
2022/01/05 06:23:48;;;;;;;10.40;1.42;;;3.50;99.90;;;;;;5002847;28;20049;-79
2022/01/05 06:26:14;;;;;;;9.68;1.63;;;3.50;99.90;;;;;;5019203;28;20045;-79
2022/01/05 06:28:39;;;;;;;7.72;1.80;;;3.50;99.90;;;;;;5035175;28;20045;-82
2022/01/05 06:31:05;;;;;;;7.05;1.65;;;3.60;99.90;;;;;;5018695;28;20614;-82
2022/01/05 06:33:31;;;;;;;9.38;1.75;;;3.60;99.90;;;;;;5034921;28;20041;-82
2022/01/05 06:35:57;;;;;;;5.43;1.92;;;3.70;99.90;;;;;;5018617;28;20038;-82
2022/01/05 06:38:22;;;;;;;4.80;1.20;;;3.70;99.90;;;;;;5018595;28;20477;-83
2022/01/05 06:40:48;;;;;;;4.80;1.05;;;3.70;99.90;;;;;;5018436;28;20080;-78
2022/01/05 06:43:14;;;;;;;14.45;1.42;;;3.70;99.90;;;;;;5034862;28;20110;-79
2022/01/05 06:45:40;;;;;;;9.20;1.17;;;3.70;99.90;;;;;;5002094;28;20042;-79
2022/01/05 06:48:05;;;;;;;10.90;0.95;;;3.70;99.90;;;;;;5018417;28;20087;-82
2022/01/05 06:50:31;;;;;;;4.75;0.80;;;3.70;99.90;;;;;;5034845;28;20511;-78
2022/01/05 06:52:57;;;;;;;5.85;0.75;;;3.70;99.90;;;;;;5018499;28;20072;-79
2022/01/05 06:55:23;;;;;;;6.63;1.40;;;3.60;99.90;;;;;;5034704;28;20045;-78
2022/01/05 06:57:51;;;;;;;12.07;2.15;;;3.70;99.90;;;;;;5034790;28;20045;-78
2022/01/05 07:00:18;;;;;;;12.25;1.50;;;3.70;99.90;;;;;;5018370;28;20037;-79
2022/01/05 07:02:44;;;;;;;4.50;1.20;;;3.60;99.90;;;;;;5034780;28;20494;-78
2022/01/05 07:05:10;;;;;;;6.95;1.17;;;3.60;99.90;;;;;;5034700;28;20056;-82
2022/01/05 07:07:37;;;;;;;4.47;0.98;;;3.50;99.90;;;;;;5018124;28;20053;-83
2022/01/05 07:10:05;;;;;;;6.93;0.75;;;3.50;99.90;;;;;;5034702;28;20058;-83
2022/01/05 07:12:33;;;;;;;5.57;0.50;;;3.50;99.90;;;;;;5034779;28;20514;-79
2022/01/05 07:14:58;;;;;;;11.85;1.20;;;3.50;99.90;;;;;;5034751;28;20485;-78
2022/01/05 07:17:24;;;;;;;7.15;1.77;;;3.50;99.90;;;;;;5018256;28;20052;-81
2022/01/05 07:19:50;;;;;;;10.98;1.80;;;3.90;99.90;;;;;;5034467;28;20037;-82
2022/01/05 07:22:16;;;;;;;10.45;0.75;;;3.50;99.90;;;;;;5017926;28;20045;-83
2022/01/05 07:24:42;;;;;;;12.57;1.33;;;3.50;99.90;;;;;;5017738;28;20056;-83
2022/01/05 07:27:07;;;;;;;6.72;1.05;;;3.50;99.90;;;;;;5017751;28;20129;-82
2022/01/05 07:29:33;;;;;;;7.00;0.85;;;3.50;99.90;;;;;;5001212;28;20548;-81
2022/01/05 07:31:59;;;;;;;3.75;0.70;;;3.50;99.90;;;;;;5001358;28;20095;-79
2022/01/05 07:34:25;;;;;;;6.57;2.10;;;3.60;99.90;;;;;;5034132;28;20048;-82
2022/01/05 07:36:51;;;;;;;5.63;1.17;;;3.60;99.90;;;;;;5001292;28;20054;-78
2022/01/05 07:39:16;;;;;;;4.30;1.05;;;3.70;99.90;;;;;;5034347;28;20084;-78
2022/01/05 07:41:42;;;;;;;3.45;0.63;;;3.80;99.90;;;;;;5017508;28;20042;-78
2022/01/05 07:44:08;;;;;;;7.75;1.17;;;3.80;99.90;;;;;;5033855;28;20045;-78
2022/01/05 07:46:35;;;;;;;5.65;0.65;;;3.90;99.90;;;;;;5017305;28;20053;-78
2022/01/05 07:49:02;;;;;;;9.00;1.80;;;3.90;99.90;;;;;;5033812;28;20447;-82
2022/01/05 07:51:29;;;;;;;11.23;1.02;;;4.00;99.90;;;;;;5033817;28;20049;-82
2022/01/05 07:53:55;;;;;;;8.13;1.77;;;4.00;99.90;;;;;;5033669;28;20056;-79
2022/01/05 07:56:21;;;;;;;3.47;0.75;;;4.10;99.90;;;;;;5017271;28;20048;-77
2022/01/05 07:58:48;;;;;;;5.32;0.68;;;3.70;99.90;;;;;;5000651;28;20042;-83
2022/01/05 08:01:16;;;;;;;5.07;1.67;;;3.70;99.90;;;;;;5033626;28;20041;-84
2022/01/05 08:03:42;;;;;;;11.35;1.48;;;3.70;99.90;;;;;;5000846;28;20065;-79
2022/01/05 08:06:07;;;;;;;9.38;1.63;;;3.80;99.90;;;;;;5017028;28;20397;-83
2022/01/05 08:08:33;;;;;;;4.97;0.70;;;3.80;99.90;;;;;;5016802;28;20140;-80
2022/01/05 08:10:59;;;;;;;6.38;1.35;;;3.90;99.90;;;;;;5033659;28;20049;-82
2022/01/05 08:13:24;;;;;;;6.97;1.45;;;3.90;99.90;;;;;;5000599;28;20128;-78
2022/01/05 08:15:51;;;;;;;2.33;0.45;;;4.00;99.90;;;;;;5016828;28;20077;-82
2022/01/05 08:18:18;;;;;;;5.93;0.93;;;3.90;99.90;;;;;;5033474;28;20042;-78
2022/01/05 08:20:44;;;;;;;3.83;1.17;;;3.90;99.90;;;;;;5017036;28;20136;-77
2022/01/05 08:23:14;;;;;;;6.32;1.67;;;4.00;99.90;;;;;;5016705;28;20037;-77
2022/01/05 08:25:39;;;;;;;12.57;2.03;;;4.00;99.90;;;;;;5033317;28;20149;-83
2022/01/05 08:28:05;;;;;;;11.98;2.42;;;4.30;99.90;;;;;;5032916;28;20164;-79
2022/01/05 08:30:34;;;;;;;16.42;2.42;;;4.20;99.90;;;;;;5016744;28;20432;-78
2022/01/05 08:33:01;;;;;;;12.30;1.92;;;4.40;99.90;;;;;;5016568;28;20484;-78
2022/01/05 08:35:27;;;;;;;10.50;1.63;;;4.60;99.90;;;;;;5016315;28;20124;-78
2022/01/05 08:37:53;;;;;;;9.43;1.88;;;4.60;99.90;;;;;;5016383;28;20045;-79
2022/01/05 08:40:21;;;;;;;15.18;2.80;;;4.70;99.90;;;;;;5000120;28;20045;-83
2022/01/05 08:42:47;;;;;;;11.32;1.42;;;4.70;99.90;;;;;;5016588;28;20404;-78
2022/01/05 08:45:15;;;;;;;10.57;1.67;;;4.70;99.90;;;;;;5016717;28;20606;-82
2022/01/05 08:47:47;;;;;;;11.95;2.22;;;4.70;99.90;;;;;;5032616;28;20132;-82
2022/01/05 08:50:13;;;;;;;13.90;2.05;;;4.70;99.90;;;;;;5016872;28;20071;-83
2022/01/05 08:52:38;;;;;;;13.88;2.05;;;4.70;99.90;;;;;;5032557;28;20053;-83
2022/01/05 08:55:05;;;;;;;12.05;2.30;;;4.60;99.90;;;;;;5016065;28;20057;-78
2022/01/05 08:57:30;;;;;;;13.60;2.35;;;4.60;99.90;;;;;;5032543;28;20092;-78
2022/01/05 08:59:57;;;;;;;11.73;1.65;;;4.50;99.90;;;;;;4999407;28;20045;-78
2022/01/05 09:02:23;;;;;;;12.30;1.60;;;4.60;99.90;;;;;;5000148;28;20038;-82
2022/01/05 09:04:51;;;;;;;9.07;1.88;;;4.40;99.90;;;;;;5032320;28;20061;-83
2022/01/05 09:07:18;;;;;;;16.02;1.23;;;4.30;99.90;;;;;;5032307;28;20050;-83
2022/01/05 09:09:44;;;;;;;15.38;3.15;;;4.30;99.90;;;;;;5032439;28;20053;-83
2022/01/05 09:12:11;;;;;;;11.73;1.25;;;4.20;99.90;;;;;;5032217;28;20064;-79
2022/01/05 09:14:37;;;;;;;12.10;1.73;;;4.20;99.90;;;;;;4999772;28;20476;-83
2022/01/05 09:17:04;;;;;;;12.68;1.27;;;4.20;99.90;;;;;;5015789;28;20088;-82
2022/01/05 09:19:29;;;;;;;9.15;1.73;;;4.10;99.90;;;;;;5015785;28;20128;-78
2022/01/05 09:21:55;;;;;;;14.90;1.33;;;4.10;99.90;;;;;;5015715;28;20128;-82
2022/01/05 09:24:21;;;;;;;15.98;2.42;;;4.10;99.90;;;;;;5015371;28;20574;-77
2022/01/05 09:26:47;;;;;;;3.33;0.80;;;4.20;99.90;;;;;;5031954;28;20038;-82
2022/01/05 09:29:13;;;;;;;12.63;2.08;;;4.30;99.90;;;;;;5031638;28;20053;-78
2022/01/05 09:31:38;;;;;;;6.35;1.05;;;4.40;99.90;;;;;;5015792;28;20052;-82
2022/01/05 09:34:05;;;;;;;11.73;1.55;;;4.60;99.90;;;;;;5031798;28;20049;-83
2022/01/05 09:36:35;;;;;;;14.57;1.75;;;4.60;99.90;;;;;;4999241;28;20048;-78
2022/01/05 09:42:05;;;;;;;18.08;2.85;;;4.80;99.90;;;;;;5031808;28;20114;-82
2022/01/05 09:44:33;;;;;;;13.40;1.83;;;4.90;99.90;;;;;;5001705;28;20387;-82
2022/01/05 09:47:20;;;;;;;10.10;1.52;;;5.00;99.90;;;;;;5030681;28;20053;-82
2022/01/05 09:49:56;;;;;;;7.85;1.60;;;5.00;99.90;;;;;;5031713;28;20045;-77
2022/01/05 09:52:23;;;;;;;9.07;1.25;;;5.20;99.90;;;;;;5031939;28;20538;-77
2022/01/05 09:54:50;;;;;;;16.33;2.40;;;5.20;99.90;;;;;;5015249;28;20052;-82
2022/01/05 09:57:18;;;;;;;12.27;3.10;;;5.20;99.90;;;;;;5031721;28;20508;-78
2022/01/05 09:59:46;;;;;;;14.07;2.28;;;5.30;99.90;;;;;;5031382;28;20053;-82
2022/01/05 10:02:14;;;;;;;15.18;3.38;;;5.20;99.90;;;;;;5014986;28;20049;-82
2022/01/05 10:04:40;;;;;;;13.10;2.42;;;5.20;99.90;;;;;;5031068;28;20127;-77
2022/01/05 10:07:08;;;;;;;18.25;1.80;;;5.10;99.90;;;;;;5031760;28;20543;-82
2022/01/05 10:09:37;;;;;;;12.85;1.80;;;5.20;99.90;;;;;;5015252;28;20052;-82
2022/01/05 10:12:03;;;;;;;13.63;1.83;;;5.50;99.90;;;;;;5014901;28;20080;-82
2022/01/05 10:14:30;;;;;;;6.43;1.67;;;5.60;99.90;;;;;;5015026;28;20052;-82
2022/01/05 10:17:07;;;;;;;13.10;1.98;;;5.70;99.90;;;;;;5031224;28;20099;-77
2022/01/05 10:19:34;;;;;;;11.07;1.58;;;5.80;99.90;;;;;;5015275;28;20050;-83
2022/01/05 10:22:00;;;;;;;28.65;3.85;;;5.80;99.90;;;;;;5014781;28;20041;-81
2022/01/05 10:24:47;;;;;;;13.00;2.15;;;5.90;99.90;;;;;;4998508;28;20118;-83
2022/01/05 10:27:20;;;;;;;13.68;2.22;;;5.90;99.90;;;;;;5031470;28;20520;-77
2022/01/05 10:29:54;;;;;;;28.02;3.08;;;6.00;99.90;;;;;;5015324;28;20041;-82
2022/01/05 10:32:20;;;;;;;16.10;2.42;;;6.10;99.90;;;;;;5031472;28;20405;-77
2022/01/05 10:35:11;;;;;;;12.57;1.83;;;6.30;99.90;;;;;;5015077;28;20476;-77
2022/01/05 10:37:40;;;;;;;9.05;1.17;;;6.50;99.90;;;;;;5015040;28;20041;-82
2022/01/05 10:40:20;;;;;;;22.90;3.25;;;6.80;99.90;;;;;;5031439;28;20048;-81
2022/01/05 10:42:49;;;;;;;16.60;3.17;;;6.60;99.90;;;;;;5031015;28;20049;-82
2022/01/05 10:45:18;;;;;;;25.05;3.40;;;6.30;99.90;;;;;;5031077;28;20053;-78
2022/01/05 10:48:10;;;;;;;19.92;3.08;;;6.40;99.90;;;;;;5030957;28;20129;-77
2022/01/05 10:50:36;;;;;;;25.42;3.45;;;6.70;99.90;;;;;;5031397;28;20491;-82
2022/01/05 10:53:03;;;;;;;13.18;2.13;;;6.70;99.90;;;;;;5031060;28;20045;-82
2022/01/05 10:55:30;;;;;;;20.80;3.28;;;6.80;99.90;;;;;;5014571;28;20072;-78
2022/01/05 10:58:05;;;;;;;13.65;2.17;;;6.70;99.90;;;;;;5031507;28;20045;-78
2022/01/05 11:00:41;;;;;;;23.90;3.33;;;6.80;99.90;;;;;;5034611;28;20045;-78
2022/01/05 11:03:30;;;;;;;12.02;2.25;;;6.60;99.90;;;;;;5034539;28;20052;-82
2022/01/05 11:06:16;;;;;;;19.63;3.28;;;6.90;99.90;;;;;;5018466;28;20462;-78
2022/01/05 11:08:56;;;;;;;20.02;2.88;;;7.00;99.90;;;;;;5034383;28;20120;-77
2022/01/05 11:11:38;;;;;;;10.15;1.83;;;7.10;99.90;;;;;;5034582;28;20124;-81
2022/01/05 11:14:11;;;;;;;19.05;2.63;;;7.10;99.90;;;;;;5034788;28;20418;-78
2022/01/05 11:16:39;;;;;;;24.13;4.70;;;7.30;99.90;;;;;;5034743;28;20474;-77
2022/01/05 11:19:21;;;;;;;14.45;2.25;;;7.20;99.90;;;;;;5034433;28;20053;-82
2022/01/05 11:22:14;;;;;;;9.30;2.58;;;7.00;99.90;;;;;;5034268;28;20050;-82
2022/01/05 11:24:41;;;;;;;21.75;2.90;;;7.00;99.90;;;;;;5033464;28;20123;-78
2022/01/05 11:27:14;;;;;;;17.25;2.13;;;7.00;99.90;;;;;;5034067;28;20446;-81
2022/01/05 11:29:41;;;;;;;17.45;2.35;;;7.00;99.90;;;;;;5043793;28;20400;-81
2022/01/05 11:32:09;;;;;;;11.05;1.42;;;7.00;99.90;;;;;;5019673;28;20083;-81
2022/01/05 11:34:35;;;;;;;20.33;2.90;;;7.10;99.90;;;;;;5016718;28;20077;-77
2022/01/05 11:37:01;;;;;;;18.52;3.47;;;7.10;99.90;;;;;;5033005;28;20439;-77
2022/01/05 11:39:30;;;;;;;19.75;2.80;;;7.20;99.90;;;;;;5033250;28;20041;-77
2022/01/05 11:41:56;;;;;;;14.65;2.78;;;7.30;99.90;;;;;;5032916;28;20045;-77
2022/01/05 11:44:27;;;;;;;19.30;2.70;;;7.30;99.90;;;;;;5033312;28;20516;-77
2022/01/05 11:46:53;;;;;;;21.27;3.97;;;7.40;99.90;;;;;;5032061;28;20076;-81
2022/01/05 11:49:28;;;;;;;10.98;1.50;;;7.40;99.90;;;;;;5049058;28;20053;-78
2022/01/05 11:51:55;;;;;;;16.98;2.40;;;7.30;99.90;;;;;;5033841;28;20049;-81
2022/01/05 11:54:21;;;;;;;11.20;1.92;;;7.30;99.90;;;;;;5033708;28;20056;-77
2022/01/05 11:56:57;;;;;;;13.45;2.63;;;7.30;90.30;;;;;;5033620;28;20443;-81
2022/01/05 11:59:35;;;;;;;16.92;3.05;;;7.40;99.30;;;;;;5050262;28;20042;-81
2022/01/05 12:02:16;;;;;;;14.90;2.55;;;7.30;81.20;;;;;;5033846;28;20397;-82
2022/01/05 12:04:57;;;;;;;13.00;1.95;;;7.30;87.90;;;;;;5016985;28;20068;-82
2022/01/05 12:07:36;;;;;;;15.75;2.47;;;7.30;95.30;;;;;;5033440;28;20084;-82
2022/01/05 12:13:04;;;;;;;12.30;1.40;;;6.90;38.40;;;;;;5024759;28;20049;-79
2022/01/05 12:15:44;;;;;;;16.77;3.00;;;6.60;56.00;;;;;;5016673;28;20046;-78
2022/01/05 12:18:11;;;;;;;13.90;2.15;;;6.70;80.20;;;;;;5050206;28;20387;-80
2022/01/05 12:20:41;;;;;;;22.38;2.75;;;6.70;63.60;;;;;;5016964;28;20408;-78
2022/01/05 12:23:24;;;;;;;16.92;3.08;;;6.70;74.80;;;;;;5033335;28;20091;-82
2022/01/05 12:26:02;;;;;;;;;;;6.80;81.10;;;;;;5033718;28;20049;-78
2022/01/05 12:28:40;;;;;;;12.57;2.17;;;6.80;68.50;;;;;;5033389;28;19921;-78
2022/01/05 12:31:09;;;;;;;13.70;4.15;;;7.10;65.10;;;;;;5033287;28;20492;-82
2022/01/05 12:33:41;;;;;;;15.32;2.53;;;7.20;60.90;;;;;;5032932;28;20045;-78
2022/01/05 12:36:08;;;;;;;13.63;1.80;;;7.20;89.50;;;;;;5033002;28;20041;-81
2022/01/05 12:38:40;;;;;;;13.85;3.15;;;7.20;99.90;;;;;;5032785;28;20080;-82
2022/01/05 12:41:29;;;;;;;13.52;2.75;;;6.70;99.90;;;;;;5033074;28;20136;-81
2022/01/05 12:43:58;;;;;;;18.90;3.20;;;6.30;99.90;;;;;;5032896;28;20049;-82
2022/01/05 12:46:36;;;;;;;15.00;1.90;;;6.20;99.90;;;;;;5016630;28;20519;-81
2022/01/05 12:49:08;;;;;;;12.00;2.30;;;6.10;99.90;;;;;;5049321;28;20049;-77
2022/01/05 12:51:39;;;;;;;18.27;2.53;;;6.00;99.90;;;;;;5033006;28;20658;-77
2022/01/05 12:54:26;;;;;;;18.13;2.85;;;6.10;99.90;;;;;;5016159;28;20183;-77
2022/01/05 12:57:01;;;;;;;21.40;3.63;;;6.00;99.90;;;;;;5032487;28;20037;-82
2022/01/05 12:59:43;;;;;;;14.70;2.78;;;6.00;99.90;;;;;;5049216;28;20128;-82
2022/01/05 13:02:16;;;;;;;16.70;2.37;;;6.00;99.90;;;;;;5032559;28;20124;-81